Terminal Aerodrome Forecast
Issued by NWS Wilmington, OH

Current Version | Previous Version | Graphics & Text | Print | Product List | Glossary On
Versions: 1 2 3 4 5 6 7 8 9 10 11 12 13 14 15 16 17 18 19 20 21 22 23 24 25 26 27
679
FTUS41 KILN 071455 AAA
TAFCVG
TAF AMD
KCVG 071455Z 0715/0818 21013KT P6SM SCT150 BKN250
     FM072300 20006KT P6SM BKN050 OVC120
     FM080300 20006KT P6SM -RA BKN025 OVC040
     FM080900 25008KT P6SM BKN025 OVC100
     FM081700 27010KT P6SM VCSH OVC025=

USA.gov is the U.S. government's official web portal to all federal, state and local government web resources and services.